Terminal Aerodrome Forecast
Issued by NWS

Home | Current Version | Previous Version | Graphics & Text | Print | Product List | Glossary Off
Versions: 1 2 3 4 5 6 7 8 9 10 11 12 13 14 15 16 17 18 19 20 21

545
FTUS43 KABR 270622 AAA
TAFATY
TAF AMD
KATY 270622Z 2706/2806 VRB03KT P6SM VCTS SCT070CB BKN120
     FM271600 06008KT P6SM -SHRA BKN040=

USA.gov is the U.S. government's official web portal to all federal, state and local government web resources and services.